sensor_id;sensor_type;location;lat;lon;timestamp;temperature;humidity
15888;DHT22;56032;51.324;12.376;2022-11-14T00:00:11;2.70;99.90
15888;DHT22;56032;51.324;12.376;2022-11-14T00:02:45;2.90;99.90
15888;DHT22;56032;51.324;12.376;2022-11-14T00:05:13;2.80;99.90
15888;DHT22;56032;51.324;12.376;2022-11-14T00:07:45;2.80;99.90
15888;DHT22;56032;51.324;12.376;2022-11-14T00:10:14;2.90;99.90
15888;DHT22;56032;51.324;12.376;2022-11-14T00:12:43;2.80;99.90
15888;DHT22;56032;51.324;12.376;2022-11-14T00:15:12;2.90;99.90
15888;DHT22;56032;51.324;12.376;2022-11-14T00:17:40;2.80;99.90
15888;DHT22;56032;51.324;12.376;2022-11-14T00:20:11;2.80;99.90
15888;DHT22;56032;51.324;12.376;2022-11-14T00:22:39;2.80;99.90
15888;DHT22;56032;51.324;12.376;2022-11-14T00:25:08;2.80;99.90
15888;DHT22;56032;51.324;12.376;2022-11-14T00:27:41;2.70;99.90
15888;DHT22;56032;51.324;12.376;2022-11-14T00:30:11;2.60;99.90
15888;DHT22;56032;51.324;12.376;2022-11-14T00:32:39;2.70;99.90
15888;DHT22;56032;51.324;12.376;2022-11-14T00:35:08;2.70;99.90
15888;DHT22;56032;51.324;12.376;2022-11-14T00:37:47;2.80;99.90
15888;DHT22;56032;51.324;12.376;2022-11-14T00:40:16;2.80;99.90
15888;DHT22;56032;51.324;12.376;2022-11-14T00:42:50;2.90;99.90
15888;DHT22;56032;51.324;12.376;2022-11-14T00:45:23;2.90;99.90
15888;DHT22;56032;51.324;12.376;2022-11-14T00:47:52;3.00;99.90
15888;DHT22;56032;51.324;12.376;2022-11-14T00:50:22;3.20;99.90
15888;DHT22;56032;51.324;12.376;2022-11-14T00:52:54;3.30;99.90
15888;DHT22;56032;51.324;12.376;2022-11-14T00:55:25;3.60;99.90
15888;DHT22;56032;51.324;12.376;2022-11-14T00:57:57;3.90;99.90
15888;DHT22;56032;51.324;12.376;2022-11-14T01:00:26;4.00;99.90
15888;DHT22;56032;51.324;12.376;2022-11-14T01:02:57;4.00;99.90
15888;DHT22;56032;51.324;12.376;2022-11-14T01:05:26;4.10;99.90
15888;DHT22;56032;51.324;12.376;2022-11-14T01:07:56;4.10;99.90
15888;DHT22;56032;51.324;12.376;2022-11-14T01:10:24;4.10;99.90
15888;DHT22;56032;51.324;12.376;2022-11-14T01:12:53;4.10;99.90
15888;DHT22;56032;51.324;12.376;2022-11-14T01:15:25;4.20;99.90
15888;DHT22;56032;51.324;12.376;2022-11-14T01:17:54;4.30;99.90
15888;DHT22;56032;51.324;12.376;2022-11-14T01:20:24;4.40;99.90
15888;DHT22;56032;51.324;12.376;2022-11-14T01:22:52;4.40;99.90
15888;DHT22;56032;51.324;12.376;2022-11-14T01:25:34;4.40;99.90
15888;DHT22;56032;51.324;12.376;2022-11-14T01:28:04;4.40;99.90
15888;DHT22;56032;51.324;12.376;2022-11-14T01:30:33;4.50;99.90
15888;DHT22;56032;51.324;12.376;2022-11-14T01:33:02;4.50;99.90
15888;DHT22;56032;51.324;12.376;2022-11-14T01:35:31;4.40;99.90
15888;DHT22;56032;51.324;12.376;2022-11-14T01:38:00;4.40;99.90
15888;DHT22;56032;51.324;12.376;2022-11-14T01:40:28;4.50;99.90
15888;DHT22;56032;51.324;12.376;2022-11-14T01:45:50;4.50;99.90
15888;DHT22;56032;51.324;12.376;2022-11-14T01:48:19;4.40;99.90
15888;DHT22;56032;51.324;12.376;2022-11-14T01:50:50;4.40;99.90
15888;DHT22;56032;51.324;12.376;2022-11-14T01:53:21;4.40;99.90
15888;DHT22;56032;51.324;12.376;2022-11-14T01:55:53;4.40;99.90
15888;DHT22;56032;51.324;12.376;2022-11-14T01:58:23;4.40;99.90
15888;DHT22;56032;51.324;12.376;2022-11-14T02:00:54;4.40;99.90
15888;DHT22;56032;51.324;12.376;2022-11-14T02:03:24;4.40;99.90
15888;DHT22;56032;51.324;12.376;2022-11-14T02:05:53;4.40;99.90
15888;DHT22;56032;51.324;12.376;2022-11-14T02:08:21;4.40;99.90
15888;DHT22;56032;51.324;12.376;2022-11-14T02:10:51;4.40;99.90
15888;DHT22;56032;51.324;12.376;2022-11-14T02:13:20;4.40;99.90
15888;DHT22;56032;51.324;12.376;2022-11-14T02:15:48;4.40;99.90
15888;DHT22;56032;51.324;12.376;2022-11-14T02:18:19;4.40;99.90
15888;DHT22;56032;51.324;12.376;2022-11-14T02:20:48;4.40;99.90
15888;DHT22;56032;51.324;12.376;2022-11-14T02:23:23;4.40;99.90
15888;DHT22;56032;51.324;12.376;2022-11-14T02:25:52;4.30;99.90
15888;DHT22;56032;51.324;12.376;2022-11-14T02:28:21;4.30;99.90
15888;DHT22;56032;51.324;12.376;2022-11-14T02:30:54;4.30;99.90
15888;DHT22;56032;51.324;12.376;2022-11-14T02:33:22;4.30;99.90
15888;DHT22;56032;51.324;12.376;2022-11-14T02:35:54;4.30;99.90
15888;DHT22;56032;51.324;12.376;2022-11-14T02:38:28;4.30;99.90
15888;DHT22;56032;51.324;12.376;2022-11-14T02:40:58;4.30;99.90
15888;DHT22;56032;51.324;12.376;2022-11-14T02:43:26;4.20;99.90
15888;DHT22;56032;51.324;12.376;2022-11-14T02:45:55;4.30;99.90
15888;DHT22;56032;51.324;12.376;2022-11-14T02:48:31;4.20;99.90
15888;DHT22;56032;51.324;12.376;2022-11-14T02:51:01;4.20;99.90
15888;DHT22;56032;51.324;12.376;2022-11-14T02:53:29;4.20;99.90
15888;DHT22;56032;51.324;12.376;2022-11-14T02:55:57;4.20;99.90
15888;DHT22;56032;51.324;12.376;2022-11-14T02:58:26;4.20;99.90
15888;DHT22;56032;51.324;12.376;2022-11-14T03:00:55;4.20;99.90
15888;DHT22;56032;51.324;12.376;2022-11-14T03:03:43;4.20;99.90
15888;DHT22;56032;51.324;12.376;2022-11-14T03:06:13;4.20;99.90
15888;DHT22;56032;51.324;12.376;2022-11-14T03:08:41;4.20;99.90
15888;DHT22;56032;51.324;12.376;2022-11-14T03:11:09;4.20;99.90
15888;DHT22;56032;51.324;12.376;2022-11-14T03:13:37;4.20;99.90
15888;DHT22;56032;51.324;12.376;2022-11-14T03:16:06;4.20;99.90
15888;DHT22;56032;51.324;12.376;2022-11-14T03:18:34;4.10;99.90
15888;DHT22;56032;51.324;12.376;2022-11-14T03:21:06;4.10;99.90
15888;DHT22;56032;51.324;12.376;2022-11-14T03:23:36;4.10;99.90
15888;DHT22;56032;51.324;12.376;2022-11-14T03:26:06;4.10;99.90
15888;DHT22;56032;51.324;12.376;2022-11-14T03:28:35;4.10;99.90
15888;DHT22;56032;51.324;12.376;2022-11-14T03:31:04;4.10;99.90
15888;DHT22;56032;51.324;12.376;2022-11-14T03:33:35;4.10;99.90
15888;DHT22;56032;51.324;12.376;2022-11-14T03:36:04;4.10;99.90
15888;DHT22;56032;51.324;12.376;2022-11-14T03:38:37;4.10;99.90
15888;DHT22;56032;51.324;12.376;2022-11-14T03:41:06;4.10;99.90
15888;DHT22;56032;51.324;12.376;2022-11-14T03:43:35;4.10;99.90
15888;DHT22;56032;51.324;12.376;2022-11-14T03:46:03;4.10;99.90
15888;DHT22;56032;51.324;12.376;2022-11-14T03:48:32;4.10;99.90
15888;DHT22;56032;51.324;12.376;2022-11-14T03:51:00;4.20;99.90
15888;DHT22;56032;51.324;12.376;2022-11-14T03:53:29;4.20;99.90
15888;DHT22;56032;51.324;12.376;2022-11-14T03:55:58;4.20;99.90
15888;DHT22;56032;51.324;12.376;2022-11-14T03:58:30;4.20;99.90
15888;DHT22;56032;51.324;12.376;2022-11-14T04:00:59;4.30;99.90
15888;DHT22;56032;51.324;12.376;2022-11-14T04:03:29;4.20;99.90
15888;DHT22;56032;51.324;12.376;2022-11-14T04:05:57;4.20;99.90
15888;DHT22;56032;51.324;12.376;2022-11-14T04:08:26;4.20;99.90
15888;DHT22;56032;51.324;12.376;2022-11-14T04:10:55;4.20;99.90
15888;DHT22;56032;51.324;12.376;2022-11-14T04:13:24;4.20;99.90
15888;DHT22;56032;51.324;12.376;2022-11-14T04:15:56;4.20;99.90
15888;DHT22;56032;51.324;12.376;2022-11-14T04:18:25;4.20;99.90
15888;DHT22;56032;51.324;12.376;2022-11-14T04:20:54;4.30;99.90
15888;DHT22;56032;51.324;12.376;2022-11-14T04:23:25;4.30;99.90
15888;DHT22;56032;51.324;12.376;2022-11-14T04:25:55;4.30;99.90
15888;DHT22;56032;51.324;12.376;2022-11-14T04:28:25;4.30;99.90
15888;DHT22;56032;51.324;12.376;2022-11-14T04:30:55;4.30;99.90
15888;DHT22;56032;51.324;12.376;2022-11-14T04:33:26;4.30;99.90
15888;DHT22;56032;51.324;12.376;2022-11-14T04:35:54;4.30;99.90
15888;DHT22;56032;51.324;12.376;2022-11-14T04:38:24;4.30;99.90
15888;DHT22;56032;51.324;12.376;2022-11-14T04:40:54;4.30;99.90
15888;DHT22;56032;51.324;12.376;2022-11-14T04:43:22;4.30;99.90
15888;DHT22;56032;51.324;12.376;2022-11-14T04:45:52;4.30;99.90
15888;DHT22;56032;51.324;12.376;2022-11-14T04:48:21;4.30;99.90
15888;DHT22;56032;51.324;12.376;2022-11-14T04:50:49;4.30;99.90
15888;DHT22;56032;51.324;12.376;2022-11-14T04:53:18;4.30;99.90
15888;DHT22;56032;51.324;12.376;2022-11-14T04:55:46;4.30;99.90
15888;DHT22;56032;51.324;12.376;2022-11-14T04:58:14;4.30;99.90
15888;DHT22;56032;51.324;12.376;2022-11-14T05:00:43;4.30;99.90
15888;DHT22;56032;51.324;12.376;2022-11-14T05:03:13;4.30;99.90
15888;DHT22;56032;51.324;12.376;2022-11-14T05:05:41;4.30;99.90
15888;DHT22;56032;51.324;12.376;2022-11-14T05:08:09;4.30;99.90
15888;DHT22;56032;51.324;12.376;2022-11-14T05:10:41;4.20;99.90
15888;DHT22;56032;51.324;12.376;2022-11-14T05:13:09;3.90;99.90
15888;DHT22;56032;51.324;12.376;2022-11-14T05:15:38;3.60;99.90
15888;DHT22;56032;51.324;12.376;2022-11-14T05:18:06;3.50;99.90
15888;DHT22;56032;51.324;12.376;2022-11-14T05:20:36;3.50;99.90
15888;DHT22;56032;51.324;12.376;2022-11-14T05:23:04;3.50;99.90
15888;DHT22;56032;51.324;12.376;2022-11-14T05:25:33;3.60;99.90
15888;DHT22;56032;51.324;12.376;2022-11-14T05:28:01;3.60;99.90
15888;DHT22;56032;51.324;12.376;2022-11-14T05:30:29;3.60;99.90
15888;DHT22;56032;51.324;12.376;2022-11-14T05:32:58;3.60;99.90
15888;DHT22;56032;51.324;12.376;2022-11-14T05:35:26;3.60;99.90
15888;DHT22;56032;51.324;12.376;2022-11-14T05:37:57;3.60;99.90
15888;DHT22;56032;51.324;12.376;2022-11-14T05:40:27;3.60;99.90
15888;DHT22;56032;51.324;12.376;2022-11-14T05:42:56;3.70;99.90
15888;DHT22;56032;51.324;12.376;2022-11-14T05:45:24;3.70;99.90
15888;DHT22;56032;51.324;12.376;2022-11-14T05:47:52;3.60;99.90
15888;DHT22;56032;51.324;12.376;2022-11-14T05:50:21;3.70;99.90
15888;DHT22;56032;51.324;12.376;2022-11-14T05:52:49;3.80;99.90
15888;DHT22;56032;51.324;12.376;2022-11-14T05:55:19;3.80;99.90
15888;DHT22;56032;51.324;12.376;2022-11-14T05:57:50;3.80;99.90
15888;DHT22;56032;51.324;12.376;2022-11-14T06:00:19;3.80;99.90
15888;DHT22;56032;51.324;12.376;2022-11-14T06:02:50;3.80;99.90
15888;DHT22;56032;51.324;12.376;2022-11-14T06:05:19;3.80;99.90
15888;DHT22;56032;51.324;12.376;2022-11-14T06:07:47;3.80;99.90
15888;DHT22;56032;51.324;12.376;2022-11-14T06:10:23;3.90;99.90
15888;DHT22;56032;51.324;12.376;2022-11-14T06:12:52;3.80;99.90
15888;DHT22;56032;51.324;12.376;2022-11-14T06:15:20;3.90;99.90
15888;DHT22;56032;51.324;12.376;2022-11-14T06:17:51;3.90;99.90
15888;DHT22;56032;51.324;12.376;2022-11-14T06:20:19;3.90;99.90
15888;DHT22;56032;51.324;12.376;2022-11-14T06:22:48;3.90;99.90
15888;DHT22;56032;51.324;12.376;2022-11-14T06:25:16;4.00;99.90
15888;DHT22;56032;51.324;12.376;2022-11-14T06:27:46;4.00;99.90
15888;DHT22;56032;51.324;12.376;2022-11-14T06:30:14;4.00;99.90
15888;DHT22;56032;51.324;12.376;2022-11-14T06:32:43;4.00;99.90
15888;DHT22;56032;51.324;12.376;2022-11-14T06:35:11;4.10;99.90
15888;DHT22;56032;51.324;12.376;2022-11-14T06:37:40;4.10;99.90
15888;DHT22;56032;51.324;12.376;2022-11-14T06:40:08;4.10;99.90
15888;DHT22;56032;51.324;12.376;2022-11-14T06:42:37;4.20;99.90
15888;DHT22;56032;51.324;12.376;2022-11-14T06:45:08;4.10;99.90
15888;DHT22;56032;51.324;12.376;2022-11-14T06:47:36;4.20;99.90
15888;DHT22;56032;51.324;12.376;2022-11-14T06:50:05;4.30;99.90
15888;DHT22;56032;51.324;12.376;2022-11-14T06:52:34;4.30;99.90
15888;DHT22;56032;51.324;12.376;2022-11-14T06:55:02;4.30;99.90
15888;DHT22;56032;51.324;12.376;2022-11-14T06:57:31;4.40;99.90
15888;DHT22;56032;51.324;12.376;2022-11-14T06:59:59;4.50;99.90
15888;DHT22;56032;51.324;12.376;2022-11-14T07:02:29;4.60;99.90
15888;DHT22;56032;51.324;12.376;2022-11-14T07:04:57;4.70;99.90
15888;DHT22;56032;51.324;12.376;2022-11-14T07:07:26;4.70;99.90
15888;DHT22;56032;51.324;12.376;2022-11-14T07:09:54;4.80;99.90
15888;DHT22;56032;51.324;12.376;2022-11-14T07:12:24;4.80;99.90
15888;DHT22;56032;51.324;12.376;2022-11-14T07:14:54;4.90;99.90
15888;DHT22;56032;51.324;12.376;2022-11-14T07:17:23;5.00;99.90
15888;DHT22;56032;51.324;12.376;2022-11-14T07:19:58;5.00;99.90
15888;DHT22;56032;51.324;12.376;2022-11-14T07:22:26;5.10;99.90
15888;DHT22;56032;51.324;12.376;2022-11-14T07:24:55;5.20;99.90
15888;DHT22;56032;51.324;12.376;2022-11-14T07:27:24;5.20;99.90
15888;DHT22;56032;51.324;12.376;2022-11-14T07:29:53;5.30;99.90
15888;DHT22;56032;51.324;12.376;2022-11-14T07:32:21;5.40;99.90
15888;DHT22;56032;51.324;12.376;2022-11-14T07:34:50;5.40;99.90
15888;DHT22;56032;51.324;12.376;2022-11-14T07:37:22;5.50;99.90
15888;DHT22;56032;51.324;12.376;2022-11-14T07:39:51;5.60;99.90
15888;DHT22;56032;51.324;12.376;2022-11-14T07:42:19;5.60;99.90
15888;DHT22;56032;51.324;12.376;2022-11-14T07:44:48;5.70;99.90
15888;DHT22;56032;51.324;12.376;2022-11-14T07:47:18;5.80;99.90
15888;DHT22;56032;51.324;12.376;2022-11-14T07:49:47;5.90;99.90
15888;DHT22;56032;51.324;12.376;2022-11-14T07:52:15;5.90;99.90
15888;DHT22;56032;51.324;12.376;2022-11-14T07:54:45;6.10;99.90
15888;DHT22;56032;51.324;12.376;2022-11-14T07:57:13;6.10;99.90
15888;DHT22;56032;51.324;12.376;2022-11-14T07:59:42;6.20;99.90
15888;DHT22;56032;51.324;12.376;2022-11-14T08:02:11;6.30;99.90
15888;DHT22;56032;51.324;12.376;2022-11-14T08:04:40;6.40;99.90
15888;DHT22;56032;51.324;12.376;2022-11-14T08:07:09;6.50;99.90
15888;DHT22;56032;51.324;12.376;2022-11-14T08:09:39;6.60;99.90
15888;DHT22;56032;51.324;12.376;2022-11-14T08:12:09;6.60;99.90
15888;DHT22;56032;51.324;12.376;2022-11-14T08:14:37;6.70;99.90
15888;DHT22;56032;51.324;12.376;2022-11-14T08:17:05;6.70;99.90
15888;DHT22;56032;51.324;12.376;2022-11-14T08:19:34;6.80;99.90
15888;DHT22;56032;51.324;12.376;2022-11-14T08:22:02;6.80;99.90
15888;DHT22;56032;51.324;12.376;2022-11-14T08:24:31;6.90;99.90
15888;DHT22;56032;51.324;12.376;2022-11-14T08:26:59;7.00;99.90
15888;DHT22;56032;51.324;12.376;2022-11-14T08:29:29;7.10;99.90
15888;DHT22;56032;51.324;12.376;2022-11-14T08:31:58;7.20;99.90
15888;DHT22;56032;51.324;12.376;2022-11-14T08:34:26;7.20;99.90
15888;DHT22;56032;51.324;12.376;2022-11-14T08:36:55;7.30;99.90
15888;DHT22;56032;51.324;12.376;2022-11-14T08:39:24;7.40;99.90
15888;DHT22;56032;51.324;12.376;2022-11-14T08:41:55;7.50;99.90
15888;DHT22;56032;51.324;12.376;2022-11-14T08:44:23;7.60;99.90
15888;DHT22;56032;51.324;12.376;2022-11-14T08:46:53;7.70;99.90
15888;DHT22;56032;51.324;12.376;2022-11-14T08:49:22;7.70;99.90
15888;DHT22;56032;51.324;12.376;2022-11-14T08:51:51;7.80;99.90
15888;DHT22;56032;51.324;12.376;2022-11-14T08:54:21;7.90;99.90
15888;DHT22;56032;51.324;12.376;2022-11-14T08:56:49;8.00;99.90
15888;DHT22;56032;51.324;12.376;2022-11-14T08:59:18;8.00;99.90
15888;DHT22;56032;51.324;12.376;2022-11-14T09:01:46;8.10;99.90
15888;DHT22;56032;51.324;12.376;2022-11-14T09:04:17;8.10;99.90
15888;DHT22;56032;51.324;12.376;2022-11-14T09:06:48;8.20;99.90
15888;DHT22;56032;51.324;12.376;2022-11-14T09:09:17;8.40;99.90
15888;DHT22;56032;51.324;12.376;2022-11-14T09:11:46;8.40;99.90
15888;DHT22;56032;51.324;12.376;2022-11-14T09:14:14;8.40;99.90
15888;DHT22;56032;51.324;12.376;2022-11-14T09:16:43;8.60;99.90
15888;DHT22;56032;51.324;12.376;2022-11-14T09:19:11;8.60;99.90
15888;DHT22;56032;51.324;12.376;2022-11-14T09:21:41;8.70;99.90
15888;DHT22;56032;51.324;12.376;2022-11-14T09:24:09;8.70;99.90
15888;DHT22;56032;51.324;12.376;2022-11-14T09:26:37;8.80;99.90
15888;DHT22;56032;51.324;12.376;2022-11-14T09:29:06;8.90;99.90
15888;DHT22;56032;51.324;12.376;2022-11-14T09:31:34;9.00;99.90
15888;DHT22;56032;51.324;12.376;2022-11-14T09:34:03;9.00;99.90
15888;DHT22;56032;51.324;12.376;2022-11-14T09:36:31;9.10;99.90
15888;DHT22;56032;51.324;12.376;2022-11-14T09:39:01;9.10;99.90
15888;DHT22;56032;51.324;12.376;2022-11-14T09:41:33;9.20;99.90
15888;DHT22;56032;51.324;12.376;2022-11-14T09:44:16;9.30;99.90
15888;DHT22;56032;51.324;12.376;2022-11-14T09:46:51;9.40;99.90
15888;DHT22;56032;51.324;12.376;2022-11-14T09:49:22;9.40;99.90
15888;DHT22;56032;51.324;12.376;2022-11-14T09:51:53;9.50;99.90
15888;DHT22;56032;51.324;12.376;2022-11-14T09:54:27;9.60;99.90
15888;DHT22;56032;51.324;12.376;2022-11-14T09:56:58;9.70;99.90
15888;DHT22;56032;51.324;12.376;2022-11-14T09:59:26;9.70;99.90
15888;DHT22;56032;51.324;12.376;2022-11-14T10:01:56;9.80;99.90
15888;DHT22;56032;51.324;12.376;2022-11-14T10:04:30;9.80;99.90
15888;DHT22;56032;51.324;12.376;2022-11-14T10:07:00;9.90;99.90
15888;DHT22;56032;51.324;12.376;2022-11-14T10:09:46;10.00;99.90
15888;DHT22;56032;51.324;12.376;2022-11-14T10:12:19;10.00;99.90
15888;DHT22;56032;51.324;12.376;2022-11-14T10:14:55;10.00;99.90
15888;DHT22;56032;51.324;12.376;2022-11-14T10:17:35;10.20;99.90
15888;DHT22;56032;51.324;12.376;2022-11-14T10:20:08;10.30;99.90
15888;DHT22;56032;51.324;12.376;2022-11-14T10:22:41;10.30;99.90
15888;DHT22;56032;51.324;12.376;2022-11-14T10:28:02;10.40;99.90
15888;DHT22;56032;51.324;12.376;2022-11-14T10:30:34;10.60;99.90
15888;DHT22;56032;51.324;12.376;2022-11-14T10:33:11;10.70;99.90
15888;DHT22;56032;51.324;12.376;2022-11-14T10:35:41;10.80;99.90
15888;DHT22;56032;51.324;12.376;2022-11-14T10:38:11;10.70;99.90
15888;DHT22;56032;51.324;12.376;2022-11-14T10:40:41;10.80;99.90
15888;DHT22;56032;51.324;12.376;2022-11-14T10:43:15;10.80;99.90
15888;DHT22;56032;51.324;12.376;2022-11-14T10:45:46;10.90;99.90
15888;DHT22;56032;51.324;12.376;2022-11-14T10:48:18;10.90;99.90
15888;DHT22;56032;51.324;12.376;2022-11-14T10:50:53;11.00;99.90
15888;DHT22;56032;51.324;12.376;2022-11-14T10:53:24;11.10;99.90
15888;DHT22;56032;51.324;12.376;2022-11-14T10:55:54;11.20;99.90
15888;DHT22;56032;51.324;12.376;2022-11-14T10:58:31;11.30;99.90
15888;DHT22;56032;51.324;12.376;2022-11-14T11:04:19;11.40;99.90
15888;DHT22;56032;51.324;12.376;2022-11-14T11:06:51;11.60;99.90
15888;DHT22;56032;51.324;12.376;2022-11-14T11:09:20;11.60;99.90
15888;DHT22;56032;51.324;12.376;2022-11-14T11:12:14;11.60;99.90
15888;DHT22;56032;51.324;12.376;2022-11-14T11:14:44;11.60;99.90
15888;DHT22;56032;51.324;12.376;2022-11-14T11:17:14;11.60;99.90
15888;DHT22;56032;51.324;12.376;2022-11-14T11:19:44;11.70;99.90
15888;DHT22;56032;51.324;12.376;2022-11-14T11:22:25;11.70;99.90
15888;DHT22;56032;51.324;12.376;2022-11-14T11:24:57;11.70;99.90
15888;DHT22;56032;51.324;12.376;2022-11-14T11:27:26;11.80;99.90
15888;DHT22;56032;51.324;12.376;2022-11-14T11:30:05;11.80;99.90
15888;DHT22;56032;51.324;12.376;2022-11-14T11:32:34;11.90;99.90
15888;DHT22;56032;51.324;12.376;2022-11-14T11:35:08;11.80;99.90
15888;DHT22;56032;51.324;12.376;2022-11-14T11:37:40;11.90;99.90
15888;DHT22;56032;51.324;12.376;2022-11-14T11:40:11;11.90;99.90
15888;DHT22;56032;51.324;12.376;2022-11-14T11:42:41;12.00;99.90
15888;DHT22;56032;51.324;12.376;2022-11-14T11:45:34;12.10;99.90
15888;DHT22;56032;51.324;12.376;2022-11-14T11:48:07;12.10;99.90
15888;DHT22;56032;51.324;12.376;2022-11-14T11:50:37;12.20;99.90
15888;DHT22;56032;51.324;12.376;2022-11-14T11:53:09;12.10;99.90
15888;DHT22;56032;51.324;12.376;2022-11-14T11:55:40;12.10;99.90
15888;DHT22;56032;51.324;12.376;2022-11-14T11:58:11;12.20;99.90
15888;DHT22;56032;51.324;12.376;2022-11-14T12:00:41;12.20;99.90
15888;DHT22;56032;51.324;12.376;2022-11-14T12:03:10;12.30;99.90
15888;DHT22;56032;51.324;12.376;2022-11-14T12:05:47;12.30;99.90
15888;DHT22;56032;51.324;12.376;2022-11-14T12:08:18;12.30;99.90
15888;DHT22;56032;51.324;12.376;2022-11-14T12:10:53;12.30;99.90
15888;DHT22;56032;51.324;12.376;2022-11-14T12:13:31;12.30;99.90
15888;DHT22;56032;51.324;12.376;2022-11-14T12:16:14;12.40;99.90
15888;DHT22;56032;51.324;12.376;2022-11-14T12:18:51;12.30;99.90
15888;DHT22;56032;51.324;12.376;2022-11-14T12:21:26;12.50;99.90
15888;DHT22;56032;51.324;12.376;2022-11-14T12:24:04;12.60;99.90
15888;DHT22;56032;51.324;12.376;2022-11-14T12:26:39;12.50;99.90
15888;DHT22;56032;51.324;12.376;2022-11-14T12:29:14;12.50;99.90
15888;DHT22;56032;51.324;12.376;2022-11-14T12:31:53;12.40;99.90
15888;DHT22;56032;51.324;12.376;2022-11-14T12:34:25;12.40;99.90
15888;DHT22;56032;51.324;12.376;2022-11-14T12:36:54;12.50;99.90
15888;DHT22;56032;51.324;12.376;2022-11-14T12:39:23;12.60;99.90
15888;DHT22;56032;51.324;12.376;2022-11-14T12:41:59;12.60;99.90
15888;DHT22;56032;51.324;12.376;2022-11-14T12:44:32;12.60;99.90
15888;DHT22;56032;51.324;12.376;2022-11-14T12:47:13;12.60;99.90
15888;DHT22;56032;51.324;12.376;2022-11-14T12:50:01;12.60;99.90
15888;DHT22;56032;51.324;12.376;2022-11-14T12:52:47;12.70;99.90
15888;DHT22;56032;51.324;12.376;2022-11-14T12:58:03;12.70;99.90
15888;DHT22;56032;51.324;12.376;2022-11-14T13:00:33;12.70;99.90
15888;DHT22;56032;51.324;12.376;2022-11-14T13:03:09;12.70;99.90
15888;DHT22;56032;51.324;12.376;2022-11-14T13:05:48;12.70;99.90
15888;DHT22;56032;51.324;12.376;2022-11-14T13:14:18;12.70;99.90
15888;DHT22;56032;51.324;12.376;2022-11-14T13:20:26;12.80;99.90
15888;DHT22;56032;51.324;12.376;2022-11-14T13:28:48;12.70;99.90
15888;DHT22;56032;51.324;12.376;2022-11-14T13:31:17;12.70;99.90
15888;DHT22;56032;51.324;12.376;2022-11-14T13:33:46;12.70;99.90
15888;DHT22;56032;51.324;12.376;2022-11-14T13:36:20;12.70;99.90
15888;DHT22;56032;51.324;12.376;2022-11-14T13:39:15;12.80;99.90
15888;DHT22;56032;51.324;12.376;2022-11-14T13:44:37;12.70;99.90
15888;DHT22;56032;51.324;12.376;2022-11-14T13:47:16;12.60;99.90
15888;DHT22;56032;51.324;12.376;2022-11-14T13:49:55;12.60;99.90
15888;DHT22;56032;51.324;12.376;2022-11-14T13:52:30;12.40;99.90
15888;DHT22;56032;51.324;12.376;2022-11-14T13:54:59;12.40;99.90
15888;DHT22;56032;51.324;12.376;2022-11-14T13:57:31;12.30;99.90
15888;DHT22;56032;51.324;12.376;2022-11-14T14:00:07;12.20;99.90
15888;DHT22;56032;51.324;12.376;2022-11-14T14:02:53;12.20;99.90
15888;DHT22;56032;51.324;12.376;2022-11-14T14:05:26;12.10;99.90
15888;DHT22;56032;51.324;12.376;2022-11-14T14:08:07;12.10;99.90
15888;DHT22;56032;51.324;12.376;2022-11-14T14:10:40;12.00;99.90
15888;DHT22;56032;51.324;12.376;2022-11-14T14:13:12;12.00;99.90
15888;DHT22;56032;51.324;12.376;2022-11-14T14:15:44;11.90;99.90
15888;DHT22;56032;51.324;12.376;2022-11-14T14:18:18;11.90;99.90
15888;DHT22;56032;51.324;12.376;2022-11-14T14:20:50;11.80;99.90
15888;DHT22;56032;51.324;12.376;2022-11-14T14:23:26;11.70;99.90
15888;DHT22;56032;51.324;12.376;2022-11-14T14:25:58;11.70;99.90
15888;DHT22;56032;51.324;12.376;2022-11-14T14:28:31;11.70;99.90
15888;DHT22;56032;51.324;12.376;2022-11-14T14:31:07;11.70;99.90
15888;DHT22;56032;51.324;12.376;2022-11-14T14:33:40;11.70;99.90
15888;DHT22;56032;51.324;12.376;2022-11-14T14:36:17;11.70;99.90
15888;DHT22;56032;51.324;12.376;2022-11-14T14:38:48;11.60;99.90
15888;DHT22;56032;51.324;12.376;2022-11-14T14:41:17;11.60;99.90
15888;DHT22;56032;51.324;12.376;2022-11-14T14:43:51;11.50;99.90
15888;DHT22;56032;51.324;12.376;2022-11-14T14:46:27;11.50;99.90
15888;DHT22;56032;51.324;12.376;2022-11-14T14:48:57;11.50;99.90
15888;DHT22;56032;51.324;12.376;2022-11-14T14:51:30;11.40;99.90
15888;DHT22;56032;51.324;12.376;2022-11-14T14:54:00;11.30;99.90
15888;DHT22;56032;51.324;12.376;2022-11-14T14:56:29;11.30;99.90
15888;DHT22;56032;51.324;12.376;2022-11-14T14:58:57;11.30;99.90
15888;DHT22;56032;51.324;12.376;2022-11-14T15:01:27;11.30;99.90
15888;DHT22;56032;51.324;12.376;2022-11-14T15:04:00;11.30;99.90
15888;DHT22;56032;51.324;12.376;2022-11-14T15:06:31;11.30;99.90
15888;DHT22;56032;51.324;12.376;2022-11-14T15:09:07;11.20;99.90
15888;DHT22;56032;51.324;12.376;2022-11-14T15:11:38;11.10;99.90
15888;DHT22;56032;51.324;12.376;2022-11-14T15:14:09;11.10;99.90
15888;DHT22;56032;51.324;12.376;2022-11-14T15:16:40;11.00;99.90
15888;DHT22;56032;51.324;12.376;2022-11-14T15:19:10;10.90;99.90
15888;DHT22;56032;51.324;12.376;2022-11-14T15:21:40;10.80;99.90
15888;DHT22;56032;51.324;12.376;2022-11-14T15:24:15;10.70;99.90
15888;DHT22;56032;51.324;12.376;2022-11-14T15:26:44;10.70;99.90
15888;DHT22;56032;51.324;12.376;2022-11-14T15:29:15;10.70;99.90
15888;DHT22;56032;51.324;12.376;2022-11-14T15:31:45;10.60;99.90
15888;DHT22;56032;51.324;12.376;2022-11-14T15:34:22;10.60;99.90
15888;DHT22;56032;51.324;12.376;2022-11-14T15:45:39;10.40;99.90
15888;DHT22;56032;51.324;12.376;2022-11-14T15:48:10;10.30;99.90
15888;DHT22;56032;51.324;12.376;2022-11-14T15:50:40;10.30;99.90
15888;DHT22;56032;51.324;12.376;2022-11-14T15:53:15;10.20;99.90
15888;DHT22;56032;51.324;12.376;2022-11-14T15:55:45;10.20;99.90
15888;DHT22;56032;51.324;12.376;2022-11-14T15:58:14;10.20;99.90
15888;DHT22;56032;51.324;12.376;2022-11-14T16:00:55;10.20;99.90
15888;DHT22;56032;51.324;12.376;2022-11-14T16:03:24;10.10;99.90
15888;DHT22;56032;51.324;12.376;2022-11-14T16:05:54;10.00;99.90
15888;DHT22;56032;51.324;12.376;2022-11-14T16:08:24;10.00;99.90
15888;DHT22;56032;51.324;12.376;2022-11-14T16:10:53;9.90;99.90
15888;DHT22;56032;51.324;12.376;2022-11-14T16:13:22;9.90;99.90
15888;DHT22;56032;51.324;12.376;2022-11-14T16:15:50;9.80;99.90
15888;DHT22;56032;51.324;12.376;2022-11-14T16:18:20;9.80;99.90
15888;DHT22;56032;51.324;12.376;2022-11-14T16:20:49;9.80;99.90
15888;DHT22;56032;51.324;12.376;2022-11-14T16:23:17;9.70;99.90
15888;DHT22;56032;51.324;12.376;2022-11-14T16:25:46;9.70;99.90